Henagar, Alabama
Current Conditions -  °F | °C
As of 6:15 AM on Monday 24 Nov 2014 (Local Time) from K4A9 Reporting Station
Scattered Clouds Scattered Clouds  
Wind Chill: 61°   Ceiling: Unl
Heat Index: 61°   Visibility: 10mi
Dew Point: 54°   Wind: 6mph
Humidity: 77%   Direction: 200°SSW
Pressure: 29.69"   Gusts: NA
Location:  34.64°N, 85.77°W
Report Text: K4A9 241215Z AUTO 20005KT 10SM SCT029 SCT038 16/12 A2969 RMK AO2
Loading
Personal Weather Stations






























Interactive Weather Map New forecast layout! Learn more

10-Day Weather Forecast

Advertisements
Track Severe Weather on mobile